Time;durP1;ratioP1;P1;durP2;ratioP2;P2;SDS_P1;SDS_P2;PMS_P1;PMS_P2;Temp;Humidity;BMP_temperature;BMP_pressure;BME280_temperature;BME280_humidity;BME280_pressure;Samples;Min_cycle;Max_cycle;Signal;HPM_P1;HPM_P2
2021/07/03 00:01:43;;;;;;;16.40;15.13;;;23.40;85.80;;;;;;3524923;40;20475;-65
2021/07/03 00:04:10;;;;;;;17.80;16.47;;;23.40;85.70;;;;;;3525680;40;20467;-65
2021/07/03 00:06:38;;;;;;;19.20;17.63;;;23.40;85.70;;;;;;3524839;40;20487;-65
2021/07/03 00:09:06;;;;;;;17.70;16.20;;;23.40;85.70;;;;;;3533146;40;20713;-65
2021/07/03 00:11:33;;;;;;;18.40;17.00;;;23.40;85.70;;;;;;3520287;40;20503;-65
2021/07/03 00:14:00;;;;;;;18.03;16.63;;;23.40;85.70;;;;;;3529450;40;20501;-65
2021/07/03 00:16:27;;;;;;;19.00;17.30;;;23.40;85.70;;;;;;3525627;40;20485;-65
2021/07/03 00:18:55;;;;;;;18.10;16.57;;;23.40;85.70;;;;;;3534624;40;20485;-65
2021/07/03 00:21:25;;;;;;;17.17;15.93;;;23.40;86.40;;;;;;3534703;40;20486;-65
2021/07/03 00:23:53;;;;;;;17.00;15.70;;;23.40;85.70;;;;;;3534817;40;20463;-65
2021/07/03 00:26:21;;;;;;;18.60;17.10;;;23.40;85.60;;;;;;3534789;40;20789;-65
2021/07/03 00:28:48;;;;;;;19.97;18.17;;;23.40;85.60;;;;;;3535326;40;20526;-65
2021/07/03 00:31:16;;;;;;;17.50;16.27;;;23.40;85.80;;;;;;3535800;40;20478;-65
2021/07/03 00:33:45;;;;;;;16.10;15.00;;;23.40;85.70;;;;;;3536010;40;20702;-65
2021/07/03 00:36:13;;;;;;;17.70;16.10;;;23.30;85.40;;;;;;3536562;40;20473;-65
2021/07/03 00:38:41;;;;;;;17.00;15.70;;;23.40;85.50;;;;;;3535379;40;20510;-65
2021/07/03 00:41:09;;;;;;;17.20;15.90;;;23.40;85.50;;;;;;3536994;40;20465;-65
2021/07/03 00:43:37;;;;;;;18.43;17.13;;;23.40;85.40;;;;;;3537327;40;20458;-65
2021/07/03 00:46:05;;;;;;;17.73;16.23;;;23.40;85.40;;;;;;3527124;40;20829;-65
2021/07/03 00:48:34;;;;;;;18.13;16.83;;;23.40;85.40;;;;;;3527547;40;20478;-65
2021/07/03 00:51:06;;;;;;;17.47;16.17;;;23.30;85.30;;;;;;3526759;40;20858;-65
2021/07/03 00:53:35;;;;;;;18.77;17.23;;;23.40;85.40;;;;;;3534816;40;20478;-65
2021/07/03 00:56:05;;;;;;;16.60;15.40;;;23.40;85.40;;;;;;3536086;40;20476;-65
2021/07/03 00:58:33;;;;;;;17.43;16.13;;;23.40;85.30;;;;;;3527258;40;20458;-65
2021/07/03 01:01:00;;;;;;;17.20;15.97;;;23.40;85.30;;;;;;3536574;40;20957;-65
2021/07/03 01:03:28;;;;;;;17.53;16.20;;;23.30;85.20;;;;;;3522098;40;20497;-65
2021/07/03 01:05:56;;;;;;;17.00;15.70;;;23.40;85.20;;;;;;3524572;40;20474;-65
2021/07/03 01:08:27;;;;;;;18.40;17.00;;;23.30;85.10;;;;;;3524952;40;20878;-65
2021/07/03 01:10:57;;;;;;;18.67;17.10;;;23.30;85.20;;;;;;3525682;40;20962;-65
2021/07/03 01:13:28;;;;;;;17.67;16.40;;;23.30;85.20;;;;;;3518937;40;20472;-65
2021/07/03 01:15:59;;;;;;;18.57;17.17;;;23.30;85.20;;;;;;3516375;40;20449;-65
2021/07/03 01:18:29;;;;;;;16.10;15.00;;;23.30;85.40;;;;;;3515883;40;20465;-65
2021/07/03 01:20:59;;;;;;;17.30;16.00;;;23.40;85.20;;;;;;3516041;40;20506;-65
2021/07/03 01:23:29;;;;;;;17.23;15.90;;;23.30;85.10;;;;;;3517418;40;20484;-64
2021/07/03 01:25:58;;;;;;;17.40;15.90;;;23.30;85.00;;;;;;3513405;40;20841;-65
2021/07/03 01:28:30;;;;;;;17.53;16.20;;;23.30;85.00;;;;;;3520617;40;20491;-65
2021/07/03 01:31:00;;;;;;;17.30;15.90;;;23.30;84.90;;;;;;3535880;40;20479;-65
2021/07/03 01:33:31;;;;;;;17.80;16.53;;;23.30;84.80;;;;;;3529525;40;20493;-65
2021/07/03 01:36:00;;;;;;;16.50;15.30;;;23.30;84.90;;;;;;3535224;40;20554;-65
2021/07/03 01:38:31;;;;;;;17.00;15.77;;;23.30;84.90;;;;;;3527752;40;20461;-65
2021/07/03 01:41:06;;;;;;;17.73;16.30;;;23.30;84.80;;;;;;3526758;40;20488;-65
2021/07/03 01:43:44;;;;;;;18.13;16.77;;;23.30;84.80;;;;;;3536405;40;20785;-65
2021/07/03 01:46:12;;;;;;;16.17;15.07;;;23.30;84.70;;;;;;3536196;40;20447;-65
2021/07/03 01:48:41;;;;;;;16.20;15.00;;;23.30;84.80;;;;;;3542951;40;20490;-65
2021/07/03 01:51:18;;;;;;;18.53;17.03;;;23.30;84.80;;;;;;3528167;40;20517;-65
2021/07/03 01:53:48;;;;;;;18.53;17.13;;;23.30;84.80;;;;;;3525437;40;20458;-65
2021/07/03 01:56:16;;;;;;;17.37;16.03;;;23.30;84.70;;;;;;3527209;40;20462;-65
2021/07/03 01:58:45;;;;;;;17.30;16.10;;;23.30;84.70;;;;;;3526881;40;20498;-65
2021/07/03 02:01:33;;;;;;;17.27;15.97;;;23.30;84.80;;;;;;3535468;40;20467;-65
2021/07/03 02:04:01;;;;;;;18.20;16.70;;;23.30;84.70;;;;;;3535504;40;20692;-65
2021/07/03 02:06:41;;;;;;;17.50;16.00;;;23.30;84.60;;;;;;3535671;40;20462;-65
2021/07/03 02:09:13;;;;;;;17.10;15.70;;;23.30;84.70;;;;;;3542857;40;20471;-65
2021/07/03 02:11:41;;;;;;;16.00;14.93;;;23.30;84.70;;;;;;3528344;40;20837;-65
2021/07/03 02:14:16;;;;;;;17.57;16.07;;;23.30;84.70;;;;;;3522475;40;21000;-65
2021/07/03 02:16:57;;;;;;;17.10;15.53;;;23.30;84.60;;;;;;3536610;40;20462;-65
2021/07/03 02:19:28;;;;;;;16.83;15.60;;;23.30;84.50;;;;;;3536411;40;20477;-65
2021/07/03 02:21:57;;;;;;;17.70;16.40;;;23.30;84.40;;;;;;3535881;40;20542;-65
2021/07/03 02:24:37;;;;;;;18.00;16.33;;;23.30;84.40;;;;;;3529547;40;20746;-65
2021/07/03 02:27:06;;;;;;;16.13;15.03;;;23.30;84.30;;;;;;3526068;40;20467;-65
2021/07/03 02:29:36;;;;;;;18.60;17.20;;;23.20;84.30;;;;;;3525394;40;20962;-65
2021/07/03 02:32:04;;;;;;;16.97;15.77;;;23.30;84.50;;;;;;3525898;40;20851;-65
2021/07/03 02:34:33;;;;;;;17.23;15.83;;;23.30;84.40;;;;;;3525740;40;20470;-65
2021/07/03 02:37:00;;;;;;;17.37;15.70;;;23.20;84.30;;;;;;3525369;40;20943;-65
2021/07/03 02:39:29;;;;;;;18.00;16.70;;;23.30;84.30;;;;;;3525670;40;20466;-65
2021/07/03 02:41:58;;;;;;;17.37;16.23;;;23.20;84.20;;;;;;3535552;40;20922;-65
2021/07/03 02:44:26;;;;;;;16.33;15.13;;;23.30;84.30;;;;;;3531046;40;20538;-65
2021/07/03 02:46:54;;;;;;;16.87;15.73;;;23.20;84.20;;;;;;3535507;40;20451;-65
2021/07/03 02:49:25;;;;;;;17.70;16.50;;;23.20;84.20;;;;;;3526650;40;20471;-65
2021/07/03 02:51:53;;;;;;;18.30;16.97;;;23.20;84.20;;;;;;3526604;40;20942;-65
2021/07/03 02:54:24;;;;;;;19.03;17.27;;;23.20;84.20;;;;;;3535260;40;20850;-65
2021/07/03 02:56:57;;;;;;;18.20;16.90;;;23.20;84.20;;;;;;3535959;40;20455;-65
2021/07/03 02:59:27;;;;;;;17.80;16.60;;;23.30;84.20;;;;;;3527154;40;20731;-65
2021/07/03 03:01:55;;;;;;;17.50;16.40;;;23.20;84.00;;;;;;3533858;40;20491;-65
2021/07/03 03:04:22;;;;;;;17.20;16.13;;;23.20;83.90;;;;;;3526668;40;20474;-65
2021/07/03 03:06:50;;;;;;;18.50;16.87;;;23.20;83.90;;;;;;3527154;40;20491;-65
2021/07/03 03:09:18;;;;;;;16.87;15.80;;;23.20;83.90;;;;;;3535462;40;20461;-65
2021/07/03 03:11:45;;;;;;;17.50;16.10;;;23.20;83.90;;;;;;3534950;40;20525;-65
2021/07/03 03:14:14;;;;;;;17.70;16.50;;;23.20;83.90;;;;;;3525473;40;20486;-65
2021/07/03 03:16:44;;;;;;;17.93;16.73;;;23.20;83.90;;;;;;3517080;40;20467;-65
2021/07/03 03:19:12;;;;;;;18.03;16.73;;;23.20;83.90;;;;;;3533159;40;20490;-65
2021/07/03 03:21:43;;;;;;;18.40;17.20;;;23.20;83.90;;;;;;3526503;40;20455;-65
2021/07/03 03:24:11;;;;;;;18.77;17.43;;;23.20;83.90;;;;;;3534435;40;20467;-65
2021/07/03 03:26:40;;;;;;;18.07;16.73;;;23.20;83.90;;;;;;3531939;40;20828;-65
2021/07/03 03:29:11;;;;;;;18.07;16.60;;;23.20;83.80;;;;;;3524103;40;20483;-65
2021/07/03 03:31:42;;;;;;;18.90;17.40;;;23.20;83.70;;;;;;3525353;40;20473;-65
2021/07/03 03:34:12;;;;;;;18.70;17.30;;;23.20;83.60;;;;;;3525049;40;20475;-65
2021/07/03 03:36:39;;;;;;;18.40;16.97;;;23.20;83.70;;;;;;3516658;40;20451;-65
2021/07/03 03:39:07;;;;;;;18.37;17.03;;;23.20;83.70;;;;;;3524930;40;20463;-65
2021/07/03 03:41:34;;;;;;;18.70;17.40;;;23.20;83.70;;;;;;3516305;40;20476;-65
2021/07/03 03:44:05;;;;;;;17.40;16.20;;;23.10;83.60;;;;;;3516131;40;20472;-65
2021/07/03 03:46:35;;;;;;;16.63;15.63;;;23.20;83.80;;;;;;3524051;40;20468;-65
2021/07/03 03:49:03;;;;;;;19.70;18.30;;;23.20;83.70;;;;;;3523321;40;20539;-65
2021/07/03 03:51:34;;;;;;;18.40;17.00;;;23.20;83.70;;;;;;3516342;40;20764;-65
2021/07/03 03:54:01;;;;;;;18.87;17.37;;;23.20;83.70;;;;;;3521210;40;20474;-65
2021/07/03 03:56:30;;;;;;;18.27;17.00;;;23.20;83.60;;;;;;3524225;40;20468;-64
2021/07/03 03:58:59;;;;;;;17.77;16.57;;;23.20;83.70;;;;;;3516426;40;20917;-65
2021/07/03 04:01:30;;;;;;;18.83;17.43;;;23.20;83.90;;;;;;3524992;40;20954;-65
2021/07/03 04:03:58;;;;;;;17.87;16.50;;;23.20;83.80;;;;;;3516756;40;20486;-65
2021/07/03 04:06:25;;;;;;;17.23;16.13;;;23.20;83.60;;;;;;3509392;40;21179;-65
2021/07/03 04:08:55;;;;;;;18.83;17.57;;;23.20;83.50;;;;;;3536449;40;20470;-65
2021/07/03 04:11:22;;;;;;;18.07;16.77;;;23.20;83.40;;;;;;3536588;40;20916;-65
2021/07/03 04:13:51;;;;;;;17.77;16.57;;;23.20;83.40;;;;;;3536651;40;20457;-65
2021/07/03 04:16:18;;;;;;;16.90;15.80;;;23.20;83.40;;;;;;3536399;40;20498;-65
2021/07/03 04:18:45;;;;;;;17.17;16.00;;;23.20;83.40;;;;;;3536342;40;21004;-65
2021/07/03 04:21:12;;;;;;;18.43;17.03;;;23.10;83.20;;;;;;3536279;40;20466;-65
2021/07/03 04:23:39;;;;;;;16.80;15.70;;;23.10;83.20;;;;;;3536378;40;20560;-65
2021/07/03 04:26:07;;;;;;;18.03;16.80;;;23.10;83.20;;;;;;3536062;40;20470;-65
2021/07/03 04:28:36;;;;;;;17.53;15.90;;;23.20;83.40;;;;;;3536211;40;20773;-65
2021/07/03 04:31:03;;;;;;;17.77;16.53;;;23.20;83.30;;;;;;3535825;40;20473;-65
2021/07/03 04:33:31;;;;;;;17.40;16.20;;;23.10;83.10;;;;;;3535248;40;20474;-65
2021/07/03 04:35:59;;;;;;;17.27;16.03;;;23.10;83.10;;;;;;3532820;40;20969;-65
2021/07/03 04:38:30;;;;;;;17.33;16.10;;;23.20;83.30;;;;;;3526157;40;20868;-65
2021/07/03 04:41:01;;;;;;;17.50;16.20;;;23.20;83.30;;;;;;3524789;40;20478;-65
2021/07/03 04:43:31;;;;;;;16.53;15.47;;;23.20;83.30;;;;;;3525689;40;20550;-65
2021/07/03 04:45:59;;;;;;;18.03;16.70;;;23.20;83.30;;;;;;3525630;40;20960;-65
2021/07/03 04:48:26;;;;;;;17.47;16.17;;;23.20;83.20;;;;;;3525866;40;21129;-65
2021/07/03 04:50:55;;;;;;;16.83;15.80;;;23.20;83.20;;;;;;3525838;40;20456;-65
2021/07/03 04:53:22;;;;;;;17.30;16.00;;;23.20;83.30;;;;;;3526186;40;20481;-65
2021/07/03 04:55:51;;;;;;;15.70;14.80;;;23.20;83.30;;;;;;3520331;40;20518;-65
2021/07/03 04:58:18;;;;;;;17.40;16.30;;;23.20;83.30;;;;;;3526721;40;20538;-65
2021/07/03 05:00:47;;;;;;;18.67;17.37;;;23.20;83.30;;;;;;3535766;40;20753;-65
2021/07/03 05:03:15;;;;;;;18.00;16.50;;;23.20;83.40;;;;;;3531256;40;20475;-65
2021/07/03 05:05:43;;;;;;;17.63;16.43;;;23.20;83.40;;;;;;3534402;40;20486;-65
2021/07/03 05:08:11;;;;;;;17.50;16.20;;;23.20;83.50;;;;;;3534541;40;20557;-65
2021/07/03 05:10:40;;;;;;;16.47;15.47;;;23.20;83.50;;;;;;3535998;40;20459;-65
2021/07/03 05:13:07;;;;;;;16.77;15.57;;;23.20;83.60;;;;;;3535065;40;20470;-65
2021/07/03 05:15:35;;;;;;;17.47;16.37;;;23.20;83.60;;;;;;3534880;40;21046;-65
2021/07/03 05:18:04;;;;;;;16.10;15.20;;;23.30;84.00;;;;;;3534952;40;20518;-65
2021/07/03 05:20:32;;;;;;;17.17;16.07;;;23.30;84.10;;;;;;3535535;40;20458;-65
2021/07/03 05:23:00;;;;;;;17.87;16.50;;;23.30;84.70;;;;;;3534766;40;20546;-65
2021/07/03 05:25:29;;;;;;;17.90;16.33;;;23.30;83.80;;;;;;3534434;40;20486;-65
2021/07/03 05:27:56;;;;;;;17.70;16.40;;;23.30;83.80;;;;;;3535180;40;20474;-65
2021/07/03 05:30:24;;;;;;;16.43;15.43;;;23.30;83.80;;;;;;3535452;40;20522;-65
2021/07/03 05:32:52;;;;;;;18.27;16.97;;;23.30;83.90;;;;;;3535533;40;20489;-65
2021/07/03 05:35:22;;;;;;;18.87;17.57;;;23.30;83.90;;;;;;3535520;40;20533;-65
2021/07/03 05:37:49;;;;;;;17.40;16.13;;;23.30;84.00;;;;;;3535929;40;20466;-65
2021/07/03 05:40:18;;;;;;;17.63;16.43;;;23.30;84.50;;;;;;3534972;40;20482;-65
2021/07/03 05:42:46;;;;;;;17.03;15.87;;;23.30;84.30;;;;;;3534555;40;20477;-65
2021/07/03 05:45:15;;;;;;;17.70;16.40;;;23.30;84.20;;;;;;3534642;40;20470;-65
2021/07/03 05:47:49;;;;;;;17.10;15.97;;;23.30;84.10;;;;;;3534537;40;20470;-65
2021/07/03 05:50:19;;;;;;;17.17;16.07;;;23.30;84.00;;;;;;3532130;40;20550;-65
2021/07/03 05:52:49;;;;;;;17.67;16.47;;;23.30;84.00;;;;;;3534127;40;20494;-65
2021/07/03 05:55:18;;;;;;;17.10;15.90;;;23.30;84.20;;;;;;3534501;40;20842;-65
2021/07/03 05:57:46;;;;;;;17.90;16.70;;;23.30;84.30;;;;;;3534977;40;20465;-65
2021/07/03 06:00:15;;;;;;;17.73;16.47;;;23.30;84.40;;;;;;3534093;40;20463;-65
2021/07/03 06:02:42;;;;;;;19.00;17.50;;;23.30;84.50;;;;;;3533060;40;21199;-65
2021/07/03 06:05:10;;;;;;;17.63;16.43;;;23.30;84.50;;;;;;3534824;40;20482;-65
2021/07/03 06:07:37;;;;;;;17.60;16.40;;;23.30;84.50;;;;;;3534583;40;20459;-65
2021/07/03 06:10:07;;;;;;;17.07;15.97;;;23.30;84.60;;;;;;3534241;40;20450;-65
2021/07/03 06:12:38;;;;;;;18.33;17.03;;;23.30;84.50;;;;;;3534172;40;20766;-65
2021/07/03 06:15:07;;;;;;;17.57;16.40;;;23.40;84.70;;;;;;3533318;40;20470;-65
2021/07/03 06:17:35;;;;;;;18.77;17.53;;;23.40;84.60;;;;;;3533484;40;20990;-65
2021/07/03 06:20:03;;;;;;;18.90;17.60;;;23.40;84.60;;;;;;3532466;40;21047;-65
2021/07/03 06:22:31;;;;;;;18.37;17.17;;;23.40;84.60;;;;;;3534222;40;20487;-65
2021/07/03 06:24:59;;;;;;;17.23;16.13;;;23.50;84.70;;;;;;3532916;40;20465;-65
2021/07/03 06:27:28;;;;;;;17.40;16.20;;;23.40;84.60;;;;;;3534854;40;20652;-65
2021/07/03 06:29:57;;;;;;;18.40;17.20;;;23.40;84.60;;;;;;3533968;40;21005;-65
2021/07/03 06:32:24;;;;;;;18.80;17.60;;;23.40;84.60;;;;;;3530579;40;20498;-65
2021/07/03 06:34:52;;;;;;;18.77;17.37;;;23.50;84.70;;;;;;3533311;40;20466;-65
2021/07/03 06:37:20;;;;;;;19.07;17.77;;;23.50;84.70;;;;;;3533895;40;20447;-65
2021/07/03 06:39:48;;;;;;;18.70;17.40;;;23.50;84.70;;;;;;3533647;40;20471;-65
2021/07/03 06:42:16;;;;;;;18.13;16.90;;;23.50;84.70;;;;;;3531920;40;20534;-65
2021/07/03 06:44:46;;;;;;;17.90;16.43;;;23.50;84.70;;;;;;3531861;40;20447;-65
2021/07/03 06:47:13;;;;;;;18.10;16.93;;;23.50;84.70;;;;;;3532618;40;20838;-65
2021/07/03 06:49:42;;;;;;;18.10;16.90;;;23.50;84.70;;;;;;3532273;40;20613;-65
2021/07/03 06:52:10;;;;;;;18.37;17.27;;;23.50;84.80;;;;;;3530692;40;20491;-65
2021/07/03 06:54:37;;;;;;;17.90;16.70;;;23.50;84.80;;;;;;3532409;40;21160;-65
2021/07/03 06:57:08;;;;;;;18.23;16.77;;;23.50;84.80;;;;;;3532043;40;20471;-65
2021/07/03 06:59:36;;;;;;;17.87;16.60;;;23.50;84.80;;;;;;3523156;40;20474;-65
2021/07/03 07:02:06;;;;;;;17.77;16.57;;;23.50;84.70;;;;;;3528860;40;20487;-65
2021/07/03 07:04:33;;;;;;;17.70;16.40;;;23.60;84.90;;;;;;3526994;40;20482;-65
2021/07/03 07:07:00;;;;;;;18.17;16.87;;;23.60;84.90;;;;;;3532172;40;20466;-65
2021/07/03 07:09:30;;;;;;;18.00;16.80;;;23.60;85.00;;;;;;3533023;40;20461;-65
2021/07/03 07:12:00;;;;;;;17.93;16.73;;;23.60;85.00;;;;;;3531371;40;20549;-65
2021/07/03 07:14:27;;;;;;;17.03;15.83;;;23.60;85.00;;;;;;3530546;40;20478;-65
2021/07/03 07:16:55;;;;;;;17.10;16.00;;;23.60;85.00;;;;;;3531511;40;20981;-65
2021/07/03 07:19:23;;;;;;;18.93;17.67;;;23.60;85.00;;;;;;3530902;40;20505;-65
2021/07/03 07:21:50;;;;;;;19.00;17.70;;;23.60;85.10;;;;;;3529809;40;20571;-65
2021/07/03 07:24:18;;;;;;;18.27;17.10;;;23.60;85.10;;;;;;3529942;40;20479;-65
2021/07/03 07:26:46;;;;;;;18.77;17.60;;;23.60;85.10;;;;;;3531014;40;20467;-65
2021/07/03 07:29:17;;;;;;;18.80;17.50;;;23.60;85.10;;;;;;3530662;40;20486;-65
2021/07/03 07:31:47;;;;;;;18.83;17.63;;;23.60;85.20;;;;;;3531491;40;20463;-65
2021/07/03 07:34:15;;;;;;;18.63;17.40;;;23.60;85.20;;;;;;3528510;40;20591;-65
2021/07/03 07:36:44;;;;;;;19.23;17.83;;;23.60;85.20;;;;;;3522064;40;20512;-65
2021/07/03 07:39:12;;;;;;;19.10;17.87;;;23.60;85.20;;;;;;3522655;40;20550;-65
2021/07/03 07:41:40;;;;;;;17.03;15.97;;;23.60;85.20;;;;;;3529519;40;20463;-65
2021/07/03 07:44:07;;;;;;;18.30;17.00;;;23.60;85.30;;;;;;3531075;40;20475;-66
2021/07/03 07:46:35;;;;;;;16.37;15.27;;;23.60;85.50;;;;;;3531184;40;20757;-66
2021/07/03 07:49:05;;;;;;;15.67;14.40;;;23.60;85.60;;;;;;3530349;40;20451;-65
2021/07/03 07:51:33;;;;;;;16.60;15.03;;;23.60;85.80;;;;;;3530001;40;20527;-66
2021/07/03 07:54:04;;;;;;;16.87;15.77;;;23.70;85.90;;;;;;3530703;40;20549;-65
2021/07/03 07:56:32;;;;;;;17.40;15.93;;;23.70;85.90;;;;;;3522366;40;20470;-66
2021/07/03 07:59:00;;;;;;;18.43;17.00;;;23.70;85.80;;;;;;3532136;40;20463;-66
2021/07/03 08:01:28;;;;;;;17.13;15.57;;;23.70;85.90;;;;;;3530207;40;20483;-66
2021/07/03 08:03:57;;;;;;;17.53;16.20;;;23.70;85.90;;;;;;3529183;40;20981;-66
2021/07/03 08:06:24;;;;;;;17.10;15.77;;;23.70;86.00;;;;;;3526773;40;20826;-66
2021/07/03 08:08:51;;;;;;;17.37;16.17;;;23.80;86.10;;;;;;3506017;40;20474;-65
2021/07/03 08:11:20;;;;;;;15.17;14.27;;;23.80;86.10;;;;;;3505112;40;20532;-66
2021/07/03 08:13:48;;;;;;;16.80;15.60;;;23.80;85.60;;;;;;3527955;40;20482;-66
2021/07/03 08:16:16;;;;;;;17.93;16.70;;;23.80;85.30;;;;;;3518814;40;20524;-66
2021/07/03 08:18:44;;;;;;;15.20;14.20;;;23.80;85.20;;;;;;3519453;40;20460;-66
2021/07/03 08:21:12;;;;;;;17.37;16.17;;;23.80;85.20;;;;;;3520516;40;20859;-66
2021/07/03 08:23:40;;;;;;;16.00;15.00;;;23.80;85.20;;;;;;3519472;40;20530;-66
2021/07/03 08:26:09;;;;;;;16.30;15.10;;;23.80;85.20;;;;;;3519829;40;20443;-66
2021/07/03 08:28:42;;;;;;;17.00;15.90;;;23.80;85.20;;;;;;3519149;40;20554;-66
2021/07/03 08:31:09;;;;;;;16.83;15.73;;;23.80;85.20;;;;;;3519059;40;20553;-66
2021/07/03 08:33:37;;;;;;;15.13;14.23;;;23.80;85.10;;;;;;3517205;40;20575;-66
2021/07/03 08:36:05;;;;;;;16.90;15.87;;;23.80;85.10;;;;;;3513900;40;20492;-66
2021/07/03 08:38:34;;;;;;;17.80;16.67;;;23.80;85.20;;;;;;3518959;40;20468;-66
2021/07/03 08:41:02;;;;;;;17.77;16.47;;;23.80;85.30;;;;;;3518833;40;20472;-66
2021/07/03 08:43:30;;;;;;;16.70;15.60;;;23.80;85.30;;;;;;3519456;40;20475;-66
2021/07/03 08:46:00;;;;;;;16.70;15.60;;;23.80;85.30;;;;;;3514752;40;20568;-66
2021/07/03 08:48:28;;;;;;;17.20;16.10;;;23.80;85.40;;;;;;3518766;40;20484;-66
2021/07/03 08:50:58;;;;;;;16.57;15.57;;;23.80;85.50;;;;;;3520135;40;20555;-66
2021/07/03 08:53:26;;;;;;;17.77;16.67;;;23.80;85.50;;;;;;3521329;40;20491;-66
2021/07/03 08:55:54;;;;;;;17.33;16.23;;;23.80;85.40;;;;;;3522089;40;20803;-66
2021/07/03 08:58:21;;;;;;;17.33;16.23;;;23.80;85.40;;;;;;3520900;40;20459;-65
2021/07/03 09:00:49;;;;;;;17.30;16.13;;;23.80;85.40;;;;;;3519482;40;20479;-66
2021/07/03 09:03:20;;;;;;;16.73;15.73;;;23.80;85.30;;;;;;3520338;40;20483;-66
2021/07/03 09:05:51;;;;;;;17.00;16.00;;;23.80;85.30;;;;;;3519728;40;20467;-66
2021/07/03 09:08:22;;;;;;;17.00;16.00;;;23.80;85.30;;;;;;3519590;40;20464;-65
2021/07/03 09:11:00;;;;;;;16.00;15.10;;;23.80;85.30;;;;;;3518950;40;20479;-66
2021/07/03 09:13:27;;;;;;;16.57;15.57;;;23.80;85.30;;;;;;3519200;40;20484;-66
2021/07/03 09:15:55;;;;;;;16.70;15.70;;;23.80;85.30;;;;;;3520023;40;20758;-65
2021/07/03 09:18:27;;;;;;;16.23;15.03;;;23.80;85.30;;;;;;3519445;40;20472;-65
2021/07/03 09:20:57;;;;;;;16.77;15.77;;;23.80;85.20;;;;;;3520078;40;20472;-65
2021/07/03 09:23:25;;;;;;;15.67;14.67;;;23.80;85.20;;;;;;3519045;40;20519;-65
2021/07/03 09:25:55;;;;;;;15.30;14.40;;;23.80;85.20;;;;;;3530289;40;20463;-65
2021/07/03 09:28:25;;;;;;;17.33;16.13;;;23.80;85.20;;;;;;3529552;40;20447;-65
2021/07/03 09:30:54;;;;;;;17.60;16.50;;;23.80;85.30;;;;;;3529201;40;20471;-65
2021/07/03 09:33:26;;;;;;;17.10;16.00;;;23.80;85.40;;;;;;3529689;40;20467;-65
2021/07/03 09:35:55;;;;;;;17.60;16.30;;;23.80;85.60;;;;;;3529862;40;20844;-65
2021/07/03 09:38:29;;;;;;;18.90;17.60;;;23.80;85.70;;;;;;3529510;40;21231;-65
2021/07/03 09:41:06;;;;;;;18.10;16.90;;;23.80;85.90;;;;;;3524343;40;20539;-65
2021/07/03 09:43:34;;;;;;;18.17;16.87;;;23.80;85.90;;;;;;3524564;40;20936;-65
2021/07/03 09:46:01;;;;;;;18.53;17.13;;;23.80;85.90;;;;;;3529707;40;20719;-65
2021/07/03 09:48:31;;;;;;;17.63;16.53;;;23.80;85.90;;;;;;3527534;40;20529;-65
2021/07/03 09:51:08;;;;;;;18.27;17.00;;;23.80;86.00;;;;;;3518716;40;20483;-65
2021/07/03 09:53:37;;;;;;;19.77;18.30;;;23.80;86.10;;;;;;3517106;40;20479;-65
2021/07/03 09:56:07;;;;;;;17.83;16.53;;;23.80;86.10;;;;;;3516385;40;20472;-65
2021/07/03 09:58:35;;;;;;;19.47;18.07;;;23.80;86.10;;;;;;3510220;40;20460;-65
2021/07/03 10:01:03;;;;;;;18.33;16.93;;;23.80;86.20;;;;;;3508838;40;21299;-65
2021/07/03 10:03:33;;;;;;;18.80;17.40;;;23.80;86.30;;;;;;3513252;40;21024;-65
2021/07/03 10:06:03;;;;;;;18.80;17.30;;;23.80;86.40;;;;;;3519302;40;20635;-65
2021/07/03 10:08:33;;;;;;;19.07;17.73;;;23.80;86.40;;;;;;3518599;40;20535;-65
2021/07/03 10:11:03;;;;;;;20.50;18.80;;;23.80;86.50;;;;;;3517773;40;20559;-65
2021/07/03 10:13:35;;;;;;;18.53;17.23;;;23.80;86.40;;;;;;3518621;40;20567;-65
2021/07/03 10:16:05;;;;;;;18.70;17.40;;;23.80;86.40;;;;;;3528206;40;20562;-65
2021/07/03 10:18:35;;;;;;;18.27;17.07;;;23.80;86.40;;;;;;3528286;40;20475;-65
2021/07/03 10:21:12;;;;;;;18.77;17.53;;;23.80;86.40;;;;;;3529180;40;20470;-65
2021/07/03 10:23:40;;;;;;;20.40;19.10;;;23.80;86.30;;;;;;3528476;40;20478;-65
2021/07/03 10:26:07;;;;;;;18.43;17.13;;;23.80;86.30;;;;;;3529990;40;20455;-65
2021/07/03 10:28:38;;;;;;;18.20;16.90;;;23.80;86.20;;;;;;3529710;40;20479;-65
2021/07/03 10:31:09;;;;;;;19.90;18.50;;;23.80;86.20;;;;;;3530721;40;20550;-65
2021/07/03 10:33:47;;;;;;;18.30;17.13;;;23.80;86.30;;;;;;3529700;40;20538;-65
2021/07/03 10:36:27;;;;;;;19.83;18.27;;;23.80;86.30;;;;;;3529158;40;20470;-65
2021/07/03 10:38:55;;;;;;;19.03;17.77;;;23.80;86.40;;;;;;3529012;40;20546;-65
2021/07/03 10:41:25;;;;;;;18.67;17.47;;;23.80;86.40;;;;;;3528265;40;20466;-65
2021/07/03 10:43:55;;;;;;;19.67;18.23;;;23.80;86.40;;;;;;3528008;40;21096;-65
2021/07/03 10:46:32;;;;;;;20.30;18.70;;;23.80;86.40;;;;;;3528492;40;20811;-65
2021/07/03 10:49:03;;;;;;;18.57;17.27;;;23.80;86.40;;;;;;3528738;40;20462;-65
2021/07/03 10:51:32;;;;;;;18.90;17.50;;;23.80;86.30;;;;;;3530369;40;20478;-65
2021/07/03 10:54:10;;;;;;;19.10;17.73;;;23.80;86.20;;;;;;3527325;40;20505;-65
2021/07/03 10:56:46;;;;;;;18.93;17.63;;;23.80;86.20;;;;;;3528895;40;20545;-65
2021/07/03 10:59:16;;;;;;;20.43;18.70;;;23.80;86.20;;;;;;3528920;40;20476;-65
2021/07/03 11:01:43;;;;;;;18.27;17.07;;;23.80;86.10;;;;;;3529976;40;20475;-65
2021/07/03 11:04:17;;;;;;;20.93;19.40;;;23.80;86.10;;;;;;3530152;40;20456;-65
2021/07/03 11:06:52;;;;;;;18.70;17.40;;;23.80;86.00;;;;;;3528951;40;20569;-65
2021/07/03 11:09:22;;;;;;;18.43;17.23;;;23.80;85.90;;;;;;3528776;40;20569;-65
2021/07/03 11:11:50;;;;;;;17.77;16.57;;;23.80;85.90;;;;;;3528577;40;20462;-65
2021/07/03 11:14:19;;;;;;;18.67;17.17;;;23.80;85.90;;;;;;3527199;40;20573;-65
2021/07/03 11:16:51;;;;;;;18.50;17.20;;;23.80;85.80;;;;;;3528317;40;20471;-65
2021/07/03 11:19:25;;;;;;;18.53;17.33;;;23.80;85.60;;;;;;3522062;40;20481;-65
2021/07/03 11:22:05;;;;;;;18.10;16.80;;;23.80;85.60;;;;;;3519273;40;20471;-65
2021/07/03 11:24:43;;;;;;;18.47;17.33;;;23.80;85.60;;;;;;3510844;40;20479;-65
2021/07/03 11:27:12;;;;;;;18.07;16.77;;;23.80;85.50;;;;;;3518131;40;20471;-65
2021/07/03 11:29:44;;;;;;;18.47;17.27;;;23.80;85.40;;;;;;3519902;40;20444;-65
2021/07/03 11:32:15;;;;;;;17.13;16.13;;;23.80;85.30;;;;;;3519234;40;20563;-65
2021/07/03 11:34:53;;;;;;;17.50;16.50;;;23.80;85.20;;;;;;3516903;40;20495;-65
2021/07/03 11:37:33;;;;;;;17.60;16.40;;;23.90;85.30;;;;;;3517993;40;20452;-65
2021/07/03 11:40:05;;;;;;;17.13;16.10;;;23.90;85.10;;;;;;3518795;40;20873;-65
2021/07/03 11:42:35;;;;;;;17.63;16.40;;;23.80;85.00;;;;;;3520256;40;20474;-65
2021/07/03 11:45:05;;;;;;;17.50;16.40;;;23.80;84.90;;;;;;3515322;40;20466;-65
2021/07/03 11:47:44;;;;;;;17.60;16.60;;;23.80;84.80;;;;;;3510067;40;20563;-65
2021/07/03 11:50:16;;;;;;;17.70;16.30;;;23.90;84.80;;;;;;3512764;40;20483;-65
2021/07/03 11:52:48;;;;;;;17.33;16.27;;;23.80;84.60;;;;;;3522363;40;20794;-65
2021/07/03 11:55:18;;;;;;;17.73;16.63;;;23.90;84.70;;;;;;3509998;40;20566;-65
2021/07/03 11:57:47;;;;;;;18.13;16.83;;;23.80;84.60;;;;;;3516538;40;20463;-65
2021/07/03 12:00:17;;;;;;;17.07;16.07;;;23.90;84.70;;;;;;3516719;40;20468;-65
2021/07/03 12:02:46;;;;;;;17.73;16.67;;;23.80;84.60;;;;;;3518485;40;20477;-65
2021/07/03 12:05:20;;;;;;;16.37;15.27;;;23.90;84.70;;;;;;3517011;40;20549;-65
2021/07/03 12:08:00;;;;;;;16.77;15.77;;;23.80;84.40;;;;;;3519280;40;20455;-65
2021/07/03 12:10:39;;;;;;;15.83;14.63;;;23.90;84.50;;;;;;3517935;40;20467;-65
2021/07/03 12:13:10;;;;;;;16.00;15.10;;;23.90;84.40;;;;;;3518465;40;20487;-65
2021/07/03 12:15:38;;;;;;;17.03;16.00;;;23.90;84.30;;;;;;3519372;40;20948;-65
2021/07/03 12:18:05;;;;;;;17.33;16.27;;;23.80;84.00;;;;;;3518136;40;20476;-65
2021/07/03 12:20:34;;;;;;;17.00;16.00;;;23.80;84.00;;;;;;3520228;40;20471;-65
2021/07/03 12:23:04;;;;;;;17.00;15.90;;;23.90;84.10;;;;;;3518174;40;20550;-65
2021/07/03 12:25:33;;;;;;;17.20;16.20;;;23.90;84.00;;;;;;3521046;40;20478;-65
2021/07/03 12:28:02;;;;;;;18.10;17.00;;;23.80;83.80;;;;;;3523589;40;20577;-65
2021/07/03 12:30:31;;;;;;;16.77;15.77;;;23.90;83.80;;;;;;3529237;40;20509;-65
2021/07/03 12:33:27;;;;;;;17.10;16.10;;;23.90;83.80;;;;;;3530322;40;20501;-65
2021/07/03 12:35:56;;;;;;;17.83;16.70;;;23.90;83.80;;;;;;3531543;40;20486;-65
2021/07/03 12:38:25;;;;;;;16.83;15.83;;;23.90;83.60;;;;;;3531756;40;20960;-65
2021/07/03 12:40:54;;;;;;;16.00;14.80;;;23.90;83.60;;;;;;3532880;40;20699;-65